createdAt,value
2018-02-08T00:00:08.038Z,-0.65
2018-02-08T00:02:36.385Z,-0.59
2018-02-08T00:05:04.727Z,-0.63
2018-02-08T00:07:33.083Z,-0.68
2018-02-08T00:10:01.413Z,-0.59
2018-02-08T00:12:29.783Z,-0.60
2018-02-08T00:14:58.123Z,-0.70
2018-02-08T00:17:26.475Z,-0.62
2018-02-08T00:19:54.811Z,-0.69
2018-02-08T00:22:34.972Z,-0.61
2018-02-08T00:25:03.386Z,-0.71
2018-02-08T00:27:31.728Z,-0.68
2018-02-08T00:30:00.958Z,-0.72
2018-02-08T00:32:29.336Z,-0.81
2018-02-08T00:34:57.686Z,-0.78
2018-02-08T00:37:26.013Z,-0.78
2018-02-08T00:39:55.369Z,-0.80
2018-02-08T00:42:23.706Z,-0.79
2018-02-08T00:44:52.057Z,-0.74
2018-02-08T00:47:20.383Z,-0.70
2018-02-08T00:49:49.173Z,-0.74
2018-02-08T00:52:17.505Z,-0.66
2018-02-08T00:54:45.943Z,-0.66
2018-02-08T00:57:14.287Z,-0.68
2018-02-08T00:59:42.621Z,-0.65
2018-02-08T01:02:10.966Z,-0.60
2018-02-08T01:04:39.308Z,-0.67
2018-02-08T01:07:07.658Z,-0.65
2018-02-08T01:09:35.995Z,-0.75
2018-02-08T01:12:04.377Z,-0.73
2018-02-08T01:14:32.698Z,-0.61
2018-02-08T01:17:01.068Z,-0.63
2018-02-08T01:19:29.412Z,-0.67
2018-02-08T01:21:57.746Z,-0.61
2018-02-08T01:24:26.116Z,-0.65
2018-02-08T01:26:54.445Z,-0.68
2018-02-08T01:29:22.817Z,-0.57
2018-02-08T01:31:51.145Z,-0.71
2018-02-08T01:34:19.523Z,-0.79
2018-02-08T01:36:47.859Z,-0.76
2018-02-08T01:39:16.211Z,-0.72
2018-02-08T01:41:44.588Z,-0.74
2018-02-08T01:44:12.946Z,-0.72
2018-02-08T01:46:41.266Z,-0.69
2018-02-08T01:49:09.842Z,-0.68
2018-02-08T01:51:38.220Z,-0.60
2018-02-08T01:54:06.554Z,-0.61
2018-02-08T01:56:34.908Z,-0.66
2018-02-08T01:59:03.230Z,-0.63
2018-02-08T02:01:31.577Z,-0.61
2018-02-08T02:03:59.907Z,-0.63
2018-02-08T02:06:28.293Z,-0.60
2018-02-08T02:08:56.667Z,-0.65
2018-02-08T02:11:25.091Z,-0.63
2018-02-08T02:13:53.417Z,-0.60
2018-02-08T02:16:21.793Z,-0.69
2018-02-08T02:18:50.191Z,-0.69
2018-02-08T02:21:18.523Z,-0.75
2018-02-08T02:23:46.883Z,-0.78
2018-02-08T02:26:15.223Z,-0.72
2018-02-08T02:28:43.596Z,-0.71
2018-02-08T02:31:11.910Z,-0.75
2018-02-08T02:33:40.254Z,-0.67
2018-02-08T02:36:08.611Z,-0.77
2018-02-08T02:38:37.026Z,-0.75
2018-02-08T02:41:05.345Z,-0.73
2018-02-08T02:43:33.735Z,-0.69
2018-02-08T02:46:02.064Z,-0.72
2018-02-08T02:48:30.453Z,-0.71
2018-02-08T02:50:58.773Z,-0.77
2018-02-08T02:53:27.157Z,-0.61
2018-02-08T02:55:55.482Z,-0.77
2018-02-08T02:58:23.814Z,-0.70
2018-02-08T03:00:52.174Z,-0.68
2018-02-08T03:03:20.507Z,-0.70
2018-02-08T03:05:48.860Z,-0.78
2018-02-08T03:08:17.234Z,-0.81
2018-02-08T03:10:45.617Z,-0.81
2018-02-08T03:13:13.938Z,-0.73
2018-02-08T03:15:42.306Z,-0.72
2018-02-08T03:18:10.619Z,-0.73
2018-02-08T03:20:38.993Z,-0.68
2018-02-08T03:23:07.366Z,-0.73
2018-02-08T03:25:35.722Z,-0.75
2018-02-08T03:28:04.265Z,-0.80
2018-02-08T03:30:38.312Z,-0.74
2018-02-08T03:33:06.624Z,-0.80
2018-02-08T03:35:34.959Z,-0.80
2018-02-08T03:38:03.368Z,-0.81
2018-02-08T03:40:31.714Z,-0.74
2018-02-08T03:43:00.066Z,-0.85
2018-02-08T03:45:28.401Z,-0.79
2018-02-08T03:47:56.761Z,-0.80
2018-02-08T03:50:25.095Z,-0.81
2018-02-08T03:52:53.458Z,-0.76
2018-02-08T03:55:21.787Z,-0.77
2018-02-08T03:57:50.155Z,-0.70
2018-02-08T04:00:18.485Z,-0.76
2018-02-08T04:02:47.083Z,-0.67
2018-02-08T04:05:15.414Z,-0.71
2018-02-08T04:07:43.752Z,-0.73
2018-02-08T04:10:12.126Z,-0.76
2018-02-08T04:12:40.462Z,-0.87
2018-02-08T04:15:08.829Z,-0.81
2018-02-08T04:17:37.232Z,-0.72
2018-02-08T04:20:05.570Z,-0.77
2018-02-08T04:22:33.903Z,-0.82
2018-02-08T04:25:02.249Z,-0.80
2018-02-08T04:27:30.643Z,-0.71
2018-02-08T04:29:59.097Z,-0.76
2018-02-08T04:32:27.421Z,-0.75
2018-02-08T04:34:55.751Z,-0.75
2018-02-08T04:37:24.109Z,-0.74
2018-02-08T04:40:04.439Z,-0.78
2018-02-08T04:42:44.578Z,-0.78
2018-02-08T04:45:24.702Z,-0.77
2018-02-08T04:47:58.106Z,-0.77
2018-02-08T04:50:26.520Z,-0.81
2018-02-08T04:52:54.921Z,-0.66
2018-02-08T04:55:23.258Z,-0.77
2018-02-08T04:57:51.608Z,-0.74
2018-02-08T05:00:20.226Z,-0.78
2018-02-08T05:02:51.030Z,-0.70
2018-02-08T05:05:19.356Z,-0.73
2018-02-08T05:07:47.707Z,-0.77
2018-02-08T05:10:16.034Z,-0.79
2018-02-08T05:12:44.399Z,-0.86
2018-02-08T05:15:12.729Z,-0.86
2018-02-08T05:17:41.077Z,-0.81
2018-02-08T05:20:09.455Z,-0.79
2018-02-08T05:22:37.775Z,-0.74
2018-02-08T05:25:06.190Z,-0.77
2018-02-08T05:27:34.514Z,-0.79
2018-02-08T05:30:02.891Z,-0.78
2018-02-08T05:32:31.224Z,-0.75
2018-02-08T05:34:59.572Z,-0.77
2018-02-08T05:37:27.967Z,-0.85
2018-02-08T05:39:56.460Z,-0.83
2018-02-08T05:42:24.774Z,-0.81
2018-02-08T05:44:53.114Z,-0.81
2018-02-08T05:47:21.478Z,-0.79
2018-02-08T05:49:49.854Z,-0.77
2018-02-08T05:52:18.203Z,-0.85
2018-02-08T05:54:46.547Z,-0.79
2018-02-08T05:57:14.899Z,-0.78
2018-02-08T05:59:43.325Z,-0.81
2018-02-08T06:02:11.658Z,-0.77
2018-02-08T06:04:40.014Z,-0.81
2018-02-08T06:07:08.373Z,-0.83
2018-02-08T06:09:36.714Z,-0.76
2018-02-08T06:12:05.078Z,-0.78
2018-02-08T06:14:33.471Z,-0.70
2018-02-08T06:17:02.254Z,-0.75
2018-02-08T06:19:30.632Z,-0.70
2018-02-08T06:21:58.950Z,-0.72
2018-02-08T06:24:27.308Z,-0.68
2018-02-08T06:26:55.642Z,-0.71
2018-02-08T06:29:24.008Z,-0.63
2018-02-08T06:31:52.345Z,-0.58
2018-02-08T06:34:20.705Z,-0.56
2018-02-08T06:36:49.062Z,-0.61
2018-02-08T06:39:17.463Z,-0.68
2018-02-08T06:41:45.913Z,-0.63
2018-02-08T06:44:14.319Z,-0.68
2018-02-08T06:46:42.693Z,-0.72
2018-02-08T06:49:11.002Z,-0.67
2018-02-08T06:51:39.363Z,-0.68
2018-02-08T06:54:07.716Z,-0.58
2018-02-08T06:56:36.312Z,-0.56
2018-02-08T06:59:04.630Z,-0.53
2018-02-08T07:01:32.986Z,-0.43
2018-02-08T07:04:01.338Z,-0.45
2018-02-08T07:06:29.724Z,-0.51
2018-02-08T07:08:58.115Z,-0.50
2018-02-08T07:11:26.481Z,-0.48
2018-02-08T07:13:54.801Z,-0.46
2018-02-08T07:16:23.191Z,-0.50
2018-02-08T07:18:51.525Z,-0.42
2018-02-08T07:21:19.959Z,-0.50
2018-02-08T07:23:48.443Z,-0.47
2018-02-08T07:26:16.803Z,-0.36
2018-02-08T07:31:24.245Z,-0.47
2018-02-08T07:33:53.662Z,-0.44
2018-02-08T07:36:22.054Z,-0.31
2018-02-08T07:38:50.414Z,-0.49
2018-02-08T07:41:18.749Z,-0.47
2018-02-08T07:43:47.122Z,-0.46
2018-02-08T07:46:15.473Z,-0.40
2018-02-08T07:48:43.838Z,-0.46
2018-02-08T07:51:15.381Z,-0.40
2018-02-08T07:53:43.732Z,-0.39
2018-02-08T07:56:13.058Z,-0.31
2018-02-08T07:58:41.439Z,-0.33
2018-02-08T08:01:09.919Z,-0.34
2018-02-08T08:03:38.251Z,-0.30
2018-02-08T08:06:06.605Z,-0.22
2018-02-08T08:08:34.955Z,-0.11
2018-02-08T08:11:03.346Z,-0.11
2018-02-08T08:13:31.683Z,0.00
2018-02-08T08:16:00.074Z,-0.01
2018-02-08T08:18:28.409Z,0.02
2018-02-08T08:20:56.795Z,0.03
2018-02-08T08:23:25.132Z,0.07
2018-02-08T08:25:53.487Z,0.09
2018-02-08T08:28:22.832Z,0.23
2018-02-08T08:30:51.204Z,0.18
2018-02-08T08:33:19.542Z,0.19
2018-02-08T08:35:47.886Z,0.30
2018-02-08T08:38:16.222Z,0.46
2018-02-08T08:40:45.603Z,0.43
2018-02-08T08:43:13.931Z,0.46
2018-02-08T08:45:42.292Z,0.34
2018-02-08T08:48:10.752Z,0.09
2018-02-08T08:50:39.231Z,0.27
2018-02-08T08:53:07.569Z,0.23
2018-02-08T08:55:35.898Z,0.30
2018-02-08T08:58:04.255Z,0.34
2018-02-08T09:00:32.579Z,0.42
2018-02-08T09:03:00.946Z,0.25
2018-02-08T09:05:29.357Z,0.36
2018-02-08T09:07:57.716Z,0.46
2018-02-08T09:10:26.051Z,0.53
2018-02-08T09:12:54.530Z,0.61
2018-02-08T09:15:22.854Z,0.64
2018-02-08T09:17:51.190Z,0.78
2018-02-08T09:20:19.538Z,0.84
2018-02-08T09:22:47.904Z,0.88
2018-02-08T09:25:16.254Z,0.84
2018-02-08T09:27:44.593Z,0.83
2018-02-08T09:30:12.945Z,0.69
2018-02-08T09:32:41.279Z,0.61
2018-02-08T09:35:09.731Z,0.69
2018-02-08T09:37:38.043Z,0.88
2018-02-08T09:40:06.400Z,0.69
2018-02-08T09:42:34.734Z,0.81
2018-02-08T09:45:03.098Z,0.76
2018-02-08T09:47:31.438Z,0.89
2018-02-08T09:49:59.902Z,0.76
2018-02-08T09:52:28.264Z,0.98
2018-02-08T09:54:56.656Z,0.91
2018-02-08T09:57:24.994Z,0.99
2018-02-08T09:59:53.413Z,1.28
2018-02-08T10:02:21.894Z,1.34
2018-02-08T10:04:50.205Z,1.13
2018-02-08T10:07:18.611Z,1.20
2018-02-08T10:09:47.028Z,1.26
2018-02-08T10:12:15.477Z,1.27
2018-02-08T10:14:43.795Z,1.42
2018-02-08T10:17:12.167Z,1.74
2018-02-08T10:19:40.482Z,1.67
2018-02-08T10:22:08.843Z,1.51
2018-02-08T10:24:37.198Z,1.64
2018-02-08T10:27:05.570Z,1.74
2018-02-08T10:29:33.926Z,1.37
2018-02-08T10:32:02.266Z,1.33
2018-02-08T10:34:30.626Z,1.36
2018-02-08T10:36:58.949Z,1.35
2018-02-08T10:39:27.293Z,1.30
2018-02-08T10:41:55.632Z,1.01
2018-02-08T10:44:23.985Z,0.89
2018-02-08T10:46:52.312Z,1.16
2018-02-08T10:49:20.675Z,1.38
2018-02-08T10:51:49.001Z,1.27
2018-02-08T10:54:17.410Z,1.36
2018-02-08T10:56:45.735Z,1.08
2018-02-08T10:59:14.095Z,1.40
2018-02-08T11:01:42.435Z,1.75
2018-02-08T11:04:10.904Z,1.68
2018-02-08T11:06:39.307Z,1.75
2018-02-08T11:09:07.618Z,1.73
2018-02-08T11:11:36.174Z,1.92
2018-02-08T11:14:04.660Z,1.81
2018-02-08T11:16:33.072Z,2.05
2018-02-08T11:19:01.410Z,2.18
2018-02-08T11:21:29.770Z,2.29
2018-02-08T11:23:58.111Z,2.07
2018-02-08T11:26:26.465Z,2.33
2018-02-08T11:28:54.835Z,2.47
2018-02-08T11:31:23.303Z,2.45
2018-02-08T11:33:51.705Z,2.31
2018-02-08T11:36:20.028Z,2.21
2018-02-08T11:38:48.386Z,2.24
2018-02-08T11:41:16.727Z,2.32
2018-02-08T11:43:45.076Z,2.73
2018-02-08T11:46:13.491Z,2.81
2018-02-08T11:48:41.822Z,2.97
2018-02-08T11:51:10.186Z,2.73
2018-02-08T11:53:38.528Z,2.85
2018-02-08T11:56:06.881Z,2.79
2018-02-08T11:58:35.210Z,2.95
2018-02-08T12:01:03.598Z,2.94
2018-02-08T12:03:31.947Z,2.68
2018-02-08T12:06:00.287Z,2.83
2018-02-08T12:08:28.629Z,2.72
2018-02-08T12:10:56.969Z,2.68
2018-02-08T12:13:25.305Z,2.51
2018-02-08T12:15:53.763Z,2.78
2018-02-08T12:18:22.267Z,2.63
2018-02-08T12:20:50.600Z,2.64
2018-02-08T12:23:18.929Z,2.53
2018-02-08T12:25:47.372Z,2.50
2018-02-08T12:28:15.686Z,2.60
2018-02-08T12:30:44.052Z,2.34
2018-02-08T12:33:12.426Z,2.58
2018-02-08T12:35:40.774Z,2.64
2018-02-08T12:38:09.106Z,2.79
2018-02-08T12:40:37.496Z,2.69
2018-02-08T12:43:05.836Z,2.67
2018-02-08T12:45:34.169Z,2.83
2018-02-08T12:48:02.509Z,2.85
2018-02-08T12:50:30.846Z,2.99
2018-02-08T12:52:59.245Z,2.80
2018-02-08T12:55:27.605Z,2.96
2018-02-08T12:57:55.956Z,3.15
2018-02-08T13:00:24.373Z,2.92
2018-02-08T13:02:52.735Z,3.10
2018-02-08T13:05:21.072Z,2.95
2018-02-08T13:07:49.398Z,3.06
2018-02-08T13:10:17.742Z,3.22
2018-02-08T13:12:46.068Z,3.04
2018-02-08T13:15:14.414Z,3.20
2018-02-08T13:17:42.766Z,3.30
2018-02-08T13:20:11.110Z,3.53
2018-02-08T13:22:39.446Z,3.61
2018-02-08T13:25:07.834Z,3.62
2018-02-08T13:27:36.153Z,3.63
2018-02-08T13:30:04.492Z,3.42
2018-02-08T13:32:32.871Z,3.43
2018-02-08T13:35:01.191Z,3.29
2018-02-08T13:37:29.592Z,3.60
2018-02-08T13:40:13.715Z,3.58
2018-02-08T13:42:42.235Z,3.62
2018-02-08T13:45:10.586Z,3.25
2018-02-08T13:47:44.538Z,3.14
2018-02-08T13:50:16.714Z,3.27
2018-02-08T13:52:50.827Z,3.13
2018-02-08T13:58:26.670Z,2.98
2018-02-08T14:00:59.503Z,3.02
2018-02-08T14:03:27.861Z,2.90
2018-02-08T14:05:56.255Z,2.92
2018-02-08T14:08:24.591Z,2.79
2018-02-08T14:10:52.942Z,2.68
2018-02-08T14:13:21.268Z,2.58
2018-02-08T14:15:49.660Z,2.40
2018-02-08T14:18:17.990Z,2.36
2018-02-08T14:20:46.332Z,2.26
2018-02-08T14:23:14.662Z,2.28
2018-02-08T14:25:43.000Z,2.30
2018-02-08T14:28:11.374Z,2.15
2018-02-08T14:30:39.702Z,2.12
2018-02-08T14:33:08.021Z,2.06
2018-02-08T14:35:36.423Z,1.97
2018-02-08T14:38:04.907Z,2.06
2018-02-08T14:40:33.223Z,1.97
2018-02-08T14:43:01.569Z,1.97
2018-02-08T14:45:29.949Z,1.91
2018-02-08T14:47:58.317Z,2.02
2018-02-08T14:50:26.638Z,1.99
2018-02-08T14:52:55.006Z,1.94
2018-02-08T14:55:23.314Z,1.92
2018-02-08T14:57:51.730Z,1.83
2018-02-08T15:00:20.040Z,1.98
2018-02-08T15:02:48.694Z,1.82
2018-02-08T15:05:17.070Z,1.81
2018-02-08T15:07:45.389Z,1.85
2018-02-08T15:10:13.784Z,1.83
2018-02-08T15:12:42.502Z,1.67
2018-02-08T15:15:10.849Z,1.69
2018-02-08T15:17:39.187Z,1.74
2018-02-08T15:20:07.649Z,1.65
2018-02-08T15:22:36.025Z,1.50
2018-02-08T15:25:04.368Z,1.44
2018-02-08T15:27:32.700Z,1.52
2018-02-08T15:30:01.055Z,1.60
2018-02-08T15:32:29.372Z,1.55
2018-02-08T15:34:57.756Z,1.69
2018-02-08T15:37:26.072Z,1.59
2018-02-08T15:39:54.920Z,1.59
2018-02-08T15:42:23.574Z,1.60
2018-02-08T15:44:51.940Z,1.54
2018-02-08T15:47:20.318Z,1.44
2018-02-08T15:49:48.635Z,1.44
2018-02-08T15:52:17.082Z,1.42
2018-02-08T15:54:45.559Z,1.43
2018-02-08T15:57:13.935Z,1.43
2018-02-08T15:59:42.251Z,1.42
2018-02-08T16:02:10.607Z,1.43
2018-02-08T16:04:38.945Z,1.41
2018-02-08T16:07:07.277Z,1.45
2018-02-08T16:09:35.615Z,1.40
2018-02-08T16:12:03.954Z,1.36
2018-02-08T16:14:32.316Z,1.34
2018-02-08T16:17:00.658Z,1.24
2018-02-08T16:19:29.003Z,1.30
2018-02-08T16:21:57.338Z,1.26
2018-02-08T16:24:25.690Z,1.19
2018-02-08T16:26:54.014Z,1.23
2018-02-08T16:29:22.374Z,1.22
2018-02-08T16:31:51.369Z,1.19
2018-02-08T16:34:19.782Z,1.17
2018-02-08T16:36:48.094Z,1.17
2018-02-08T16:39:16.490Z,1.13
2018-02-08T16:41:44.814Z,1.08
2018-02-08T16:44:13.153Z,1.09
2018-02-08T16:46:41.499Z,1.06
2018-02-08T16:49:09.863Z,1.19
2018-02-08T16:51:38.207Z,1.22
2018-02-08T16:54:06.552Z,1.18
2018-02-08T16:56:34.896Z,1.17
2018-02-08T16:59:03.301Z,1.17
2018-02-08T17:01:31.640Z,1.17
2018-02-08T17:03:59.970Z,1.14
2018-02-08T17:06:28.352Z,1.19
2018-02-08T17:08:56.656Z,1.17
2018-02-08T17:11:25.030Z,1.20
2018-02-08T17:13:53.541Z,1.19
2018-02-08T17:16:21.914Z,1.16
2018-02-08T17:18:50.285Z,1.23
2018-02-08T17:21:18.733Z,1.24
2018-02-08T17:23:47.958Z,1.20
2018-02-08T17:26:16.293Z,1.15
2018-02-08T17:28:44.839Z,1.18
2018-02-08T17:31:13.205Z,1.20
2018-02-08T17:33:41.546Z,1.15
2018-02-08T17:36:09.891Z,1.18
2018-02-08T17:38:38.235Z,1.12
2018-02-08T17:41:06.562Z,1.07
2018-02-08T17:43:34.898Z,1.10
2018-02-08T17:46:03.378Z,1.13
2018-02-08T17:48:31.782Z,1.14
2018-02-08T17:51:00.108Z,1.09
2018-02-08T17:53:28.440Z,1.10
2018-02-08T17:55:56.807Z,1.06
2018-02-08T17:58:25.119Z,1.02
2018-02-08T18:00:53.467Z,1.06
2018-02-08T18:03:21.797Z,1.05
2018-02-08T18:05:50.153Z,1.02
2018-02-08T18:08:18.486Z,0.98
2018-02-08T18:10:46.982Z,1.03
2018-02-08T18:13:15.287Z,1.04
2018-02-08T18:15:43.842Z,1.08
2018-02-08T18:18:12.156Z,1.01
2018-02-08T18:20:40.719Z,1.02
2018-02-08T18:23:09.067Z,0.98
2018-02-08T18:25:37.396Z,1.05
2018-02-08T18:28:05.717Z,1.04
2018-02-08T18:30:34.046Z,1.08
2018-02-08T18:33:02.362Z,1.10
2018-02-08T18:35:30.707Z,1.08
2018-02-08T18:37:59.058Z,0.95
2018-02-08T18:40:27.415Z,0.93
2018-02-08T18:42:55.728Z,0.97
2018-02-08T18:45:24.058Z,1.14
2018-02-08T18:47:52.373Z,1.06
2018-02-08T18:50:20.719Z,1.03
2018-02-08T18:52:49.058Z,1.05
2018-02-08T18:55:17.366Z,1.07
2018-02-08T18:57:45.762Z,1.03
2018-02-08T19:00:14.083Z,1.07
2018-02-08T19:02:42.520Z,1.21
2018-02-08T19:05:10.862Z,1.13
2018-02-08T19:07:39.272Z,1.04
2018-02-08T19:10:07.593Z,1.08
2018-02-08T19:12:35.909Z,1.18
2018-02-08T19:15:04.321Z,1.21
2018-02-08T19:17:32.685Z,1.19
2018-02-08T19:20:01.035Z,1.09
2018-02-08T19:22:29.399Z,1.10
2018-02-08T19:24:57.735Z,1.06
2018-02-08T19:27:26.056Z,1.11
2018-02-08T19:29:54.434Z,1.11
2018-02-08T19:32:22.772Z,1.09
2018-02-08T19:34:51.094Z,1.13
2018-02-08T19:37:19.442Z,1.14
2018-02-08T19:39:47.846Z,1.08
2018-02-08T19:42:16.162Z,1.07
2018-02-08T19:44:44.790Z,1.06
2018-02-08T19:47:13.126Z,1.19
2018-02-08T19:49:41.446Z,1.12
2018-02-08T19:52:09.769Z,1.16
2018-02-08T19:54:38.122Z,1.20
2018-02-08T19:57:06.463Z,1.16
2018-02-08T19:59:34.822Z,1.15
2018-02-08T20:02:03.258Z,1.10
2018-02-08T20:04:31.672Z,1.08
2018-02-08T20:07:00.047Z,1.09
2018-02-08T20:09:28.398Z,1.03
2018-02-08T20:11:56.727Z,1.00
2018-02-08T20:14:30.621Z,1.00
2018-02-08T20:16:58.955Z,0.96
2018-02-08T20:19:27.291Z,1.01
2018-02-08T20:21:55.643Z,0.99
2018-02-08T20:24:23.963Z,1.03
2018-02-08T20:26:52.367Z,1.06
2018-02-08T20:29:20.683Z,1.09
2018-02-08T20:31:49.003Z,1.07
2018-02-08T20:34:17.356Z,0.95
2018-02-08T20:36:45.659Z,0.95
2018-02-08T20:39:13.990Z,0.98
2018-02-08T20:41:42.367Z,0.99
2018-02-08T20:44:10.740Z,1.00
2018-02-08T20:46:39.046Z,0.92
2018-02-08T20:49:07.386Z,0.94
2018-02-08T20:51:35.705Z,0.95
2018-02-08T20:54:04.053Z,0.96
2018-02-08T20:56:32.366Z,1.02
2018-02-08T20:59:00.699Z,1.08
2018-02-08T21:01:29.019Z,1.15
2018-02-08T21:03:57.363Z,1.17
2018-02-08T21:06:25.686Z,1.12
2018-02-08T21:08:54.019Z,0.99
2018-02-08T21:11:22.343Z,0.99
2018-02-08T21:13:50.732Z,0.99
2018-02-08T21:16:19.094Z,0.98
2018-02-08T21:18:47.428Z,1.00
2018-02-08T21:21:15.756Z,0.95
2018-02-08T21:23:44.078Z,0.96
2018-02-08T21:26:12.409Z,0.94
2018-02-08T21:28:40.730Z,0.93
2018-02-08T21:31:09.107Z,0.94
2018-02-08T21:33:37.405Z,0.90
2018-02-08T21:36:05.741Z,0.91
2018-02-08T21:38:34.061Z,0.98
2018-02-08T21:41:02.389Z,0.91
2018-02-08T21:43:30.736Z,0.95
2018-02-08T21:45:59.197Z,0.96
2018-02-08T21:48:27.513Z,0.90
2018-02-08T21:50:55.937Z,0.98
2018-02-08T21:53:24.313Z,0.97
2018-02-08T21:55:52.622Z,1.01
2018-02-08T21:58:20.972Z,1.03
2018-02-08T22:00:49.298Z,1.00
2018-02-08T22:03:17.642Z,0.96
2018-02-08T22:05:46.021Z,0.94
2018-02-08T22:08:14.301Z,0.90
2018-02-08T22:10:42.693Z,0.90
2018-02-08T22:13:11.044Z,0.87
2018-02-08T22:15:39.395Z,0.85
2018-02-08T22:18:07.729Z,0.84
2018-02-08T22:20:36.085Z,0.85
2018-02-08T22:23:04.511Z,0.81
2018-02-08T22:25:32.834Z,0.83
2018-02-08T22:28:01.185Z,0.89
2018-02-08T22:30:29.500Z,0.84
2018-02-08T22:32:57.953Z,0.84
2018-02-08T22:35:26.279Z,0.91
2018-02-08T22:37:54.610Z,0.89
2018-02-08T22:40:22.984Z,0.92
2018-02-08T22:42:51.322Z,0.88
2018-02-08T22:45:19.664Z,0.89
2018-02-08T22:47:48.101Z,0.93
2018-02-08T22:50:16.493Z,0.94
2018-02-08T22:52:45.742Z,0.90
2018-02-08T22:55:14.090Z,0.91
2018-02-08T22:57:42.415Z,0.84
2018-02-08T23:00:10.779Z,0.95
2018-02-08T23:02:39.209Z,0.85
2018-02-08T23:05:07.573Z,0.87
2018-02-08T23:07:35.973Z,0.92
2018-02-08T23:10:04.309Z,0.97
2018-02-08T23:12:32.721Z,0.99
2018-02-08T23:15:01.035Z,0.92
2018-02-08T23:17:29.355Z,0.97
2018-02-08T23:19:57.682Z,0.95
2018-02-08T23:22:26.038Z,0.90
2018-02-08T23:24:54.375Z,0.89
2018-02-08T23:27:22.707Z,0.83
2018-02-08T23:29:51.042Z,0.82
2018-02-08T23:32:19.633Z,0.84
2018-02-08T23:34:47.989Z,0.83
2018-02-08T23:37:16.333Z,0.85
2018-02-08T23:39:44.655Z,0.90
2018-02-08T23:42:13.057Z,0.89
2018-02-08T23:44:41.479Z,0.90
2018-02-08T23:47:09.772Z,0.90
2018-02-08T23:49:38.103Z,0.87
2018-02-08T23:52:06.430Z,0.89
2018-02-08T23:54:34.771Z,0.90
2018-02-08T23:57:03.090Z,0.90
2018-02-08T23:59:31.650Z,0.93
